createdAt,value
2023-05-12T00:00:11.856Z,13.10
2023-05-12T00:02:39.926Z,11.50
2023-05-12T00:05:08.796Z,10.70
2023-05-12T00:07:39.306Z,11.00
2023-05-12T00:10:08.188Z,11.67
2023-05-12T00:12:36.526Z,12.50
2023-05-12T00:15:06.123Z,10.90
2023-05-12T00:17:34.523Z,12.03
2023-05-12T00:20:02.896Z,11.73
2023-05-12T00:22:32.845Z,10.80
2023-05-12T00:25:02.458Z,11.50
2023-05-12T00:27:32.200Z,11.60
2023-05-12T00:30:00.589Z,10.70
2023-05-12T00:32:28.724Z,10.90
2023-05-12T00:34:57.412Z,11.50
2023-05-12T00:37:25.647Z,12.53
2023-05-12T00:39:53.765Z,12.40
2023-05-12T00:42:23.167Z,12.20
2023-05-12T00:44:53.620Z,12.10
2023-05-12T00:47:24.125Z,12.50
2023-05-12T00:49:55.201Z,11.20
2023-05-12T00:52:26.213Z,11.80
2023-05-12T00:54:54.629Z,11.50
2023-05-12T00:57:26.771Z,12.27
2023-05-12T00:59:55.298Z,11.53
2023-05-12T01:02:23.720Z,12.67
2023-05-12T01:04:52.382Z,13.83
2023-05-12T01:07:23.733Z,11.33
2023-05-12T01:09:56.534Z,12.17
2023-05-12T01:12:27.871Z,12.23
2023-05-12T01:14:57.385Z,11.70
2023-05-12T01:17:30.370Z,11.67
2023-05-12T01:20:01.618Z,11.90
2023-05-12T01:22:33.154Z,10.80
2023-05-12T01:25:04.354Z,11.73
2023-05-12T01:27:35.762Z,11.30
2023-05-12T01:30:05.951Z,11.43
2023-05-12T01:32:34.495Z,10.30
2023-05-12T01:35:03.557Z,11.90
2023-05-12T01:37:31.451Z,10.60
2023-05-12T01:39:59.894Z,11.50
2023-05-12T01:42:28.907Z,11.60
2023-05-12T01:44:58.291Z,11.50
2023-05-12T01:47:26.916Z,10.30
2023-05-12T01:49:55.347Z,12.17
2023-05-12T01:52:25.261Z,12.17
2023-05-12T01:54:53.355Z,11.67
2023-05-12T01:57:21.981Z,11.80
2023-05-12T01:59:50.124Z,12.40
2023-05-12T02:02:19.858Z,11.97
2023-05-12T02:04:48.549Z,12.17
2023-05-12T02:07:16.901Z,11.27
2023-05-12T02:09:44.887Z,11.00
2023-05-12T02:12:13.754Z,11.47
2023-05-12T02:14:41.910Z,10.53
2023-05-12T02:17:09.964Z,10.07
2023-05-12T02:19:39.672Z,12.40
2023-05-12T02:22:08.018Z,10.60
2023-05-12T02:24:36.046Z,12.53
2023-05-12T02:27:04.707Z,12.60
2023-05-12T02:29:32.968Z,12.43
2023-05-12T02:32:01.715Z,11.50
2023-05-12T02:34:30.941Z,11.93
2023-05-12T02:37:00.706Z,11.43
2023-05-12T02:39:28.749Z,11.30
2023-05-12T02:41:57.284Z,10.83
2023-05-12T02:44:27.242Z,11.93
2023-05-12T02:46:58.533Z,10.33
2023-05-12T02:49:26.468Z,11.43
2023-05-12T02:51:55.634Z,10.97
2023-05-12T02:54:24.981Z,11.60
2023-05-12T02:56:53.368Z,12.40
2023-05-12T02:59:22.298Z,12.70
2023-05-12T03:01:50.540Z,12.53
2023-05-12T03:04:19.340Z,11.30
2023-05-12T03:06:47.808Z,11.40
2023-05-12T03:09:16.675Z,11.30
2023-05-12T03:11:46.632Z,11.57
2023-05-12T03:14:15.452Z,11.13
2023-05-12T03:16:44.031Z,10.90
2023-05-12T03:19:12.105Z,11.60
2023-05-12T03:21:40.826Z,10.87
2023-05-12T03:24:09.649Z,9.37
2023-05-12T03:26:38.227Z,10.03
2023-05-12T03:29:08.036Z,11.40
2023-05-12T03:31:36.836Z,10.47
2023-05-12T03:34:04.905Z,10.03
2023-05-12T03:36:33.108Z,11.70
2023-05-12T03:39:03.321Z,12.20
2023-05-12T03:41:31.367Z,11.53
2023-05-12T03:44:01.264Z,12.07
2023-05-12T03:46:31.873Z,12.50
2023-05-12T03:48:59.956Z,11.33
2023-05-12T03:51:28.329Z,12.33
2023-05-12T03:53:56.843Z,13.27
2023-05-12T03:56:24.926Z,11.67
2023-05-12T03:58:52.961Z,11.87
2023-05-12T04:01:21.344Z,11.63
2023-05-12T04:03:50.971Z,12.30
2023-05-12T04:06:19.133Z,13.60
2023-05-12T04:08:47.533Z,12.10
2023-05-12T04:11:18.789Z,11.93
2023-05-12T04:13:46.864Z,12.27
2023-05-12T04:16:15.419Z,11.20
2023-05-12T04:18:43.436Z,11.00
2023-05-12T04:21:13.006Z,12.97
2023-05-12T04:23:41.647Z,10.80
2023-05-12T04:26:09.965Z,11.20
2023-05-12T04:28:38.498Z,10.30
2023-05-12T04:31:07.359Z,11.50
2023-05-12T04:33:35.539Z,10.87
2023-05-12T04:36:03.783Z,10.87
2023-05-12T04:38:33.717Z,10.10
2023-05-12T04:41:02.114Z,9.87
2023-05-12T04:46:06.593Z,15.60
2023-05-12T04:48:34.958Z,14.70
2023-05-12T04:51:02.982Z,13.77
2023-05-12T04:53:35.055Z,13.90
2023-05-12T04:56:03.979Z,13.90
2023-05-12T04:58:31.977Z,13.47
2023-05-12T05:01:03.681Z,11.90
2023-05-12T05:03:31.990Z,11.90
2023-05-12T05:06:02.572Z,11.53
2023-05-12T05:08:31.002Z,12.10
2023-05-12T05:11:00.411Z,14.20
2023-05-12T05:13:28.523Z,13.97
2023-05-12T05:15:57.129Z,12.73
2023-05-12T05:18:25.632Z,12.63
2023-05-12T05:20:58.544Z,13.43
2023-05-12T05:23:27.894Z,12.60
2023-05-12T05:25:56.261Z,11.67
2023-05-12T05:28:28.450Z,14.57
2023-05-12T05:30:56.704Z,15.47
2023-05-12T05:33:25.231Z,19.27
2023-05-12T05:35:55.117Z,16.40
2023-05-12T05:38:23.569Z,13.83
2023-05-12T05:40:54.236Z,12.43
2023-05-12T05:43:23.695Z,12.60
2023-05-12T05:45:53.094Z,10.90
2023-05-12T05:48:21.959Z,9.23
2023-05-12T05:50:52.058Z,9.07
2023-05-12T05:53:23.057Z,9.20
2023-05-12T05:55:51.643Z,8.93
2023-05-12T05:58:19.704Z,8.77
2023-05-12T06:00:47.899Z,11.27
2023-05-12T06:03:18.255Z,11.33
2023-05-12T06:05:47.884Z,9.50
2023-05-12T06:08:16.888Z,11.33
2023-05-12T06:10:45.727Z,11.73
2023-05-12T06:13:13.887Z,10.50
2023-05-12T06:15:42.075Z,8.10
2023-05-12T06:18:12.392Z,8.00
2023-05-12T06:20:42.358Z,7.47
2023-05-12T06:23:10.960Z,7.20
2023-05-12T06:25:39.781Z,8.30
2023-05-12T06:28:08.540Z,6.80
2023-05-12T06:30:36.807Z,6.83
2023-05-12T06:33:05.656Z,6.90
2023-05-12T06:35:33.994Z,6.80
2023-05-12T06:38:03.326Z,6.47
2023-05-12T06:40:31.678Z,6.40
2023-05-12T06:42:59.767Z,6.30
2023-05-12T06:45:27.911Z,5.93
2023-05-12T06:47:58.045Z,6.37
2023-05-12T06:50:26.559Z,5.70
2023-05-12T06:52:54.581Z,5.37
2023-05-12T06:55:24.941Z,5.57
2023-05-12T06:57:56.159Z,6.20
2023-05-12T07:00:24.861Z,5.60
2023-05-12T07:02:54.969Z,5.00
2023-05-12T07:05:24.769Z,4.83
2023-05-12T07:07:53.379Z,5.33
2023-05-12T07:10:22.651Z,5.67
2023-05-12T07:12:52.396Z,5.00
2023-05-12T07:15:20.977Z,4.67
2023-05-12T07:17:50.302Z,4.23
2023-05-12T07:20:19.453Z,4.20
2023-05-12T07:22:48.757Z,4.50
2023-05-12T07:25:18.087Z,4.10
2023-05-12T07:27:47.228Z,4.83
2023-05-12T07:30:18.093Z,3.50
2023-05-12T07:32:46.327Z,4.13
2023-05-12T07:35:14.413Z,3.77
2023-05-12T07:37:43.003Z,3.63
2023-05-12T07:40:11.552Z,3.57
2023-05-12T07:42:39.734Z,3.83
2023-05-12T07:45:09.240Z,3.00
2023-05-12T07:47:40.110Z,3.30
2023-05-12T07:50:08.772Z,3.67
2023-05-12T07:52:38.204Z,4.00
2023-05-12T07:55:07.285Z,3.60
2023-05-12T07:57:35.459Z,3.30
2023-05-12T08:00:05.699Z,3.53
2023-05-12T08:02:34.312Z,2.63
2023-05-12T08:05:04.807Z,2.47
2023-05-12T08:07:33.860Z,2.93
2023-05-12T08:10:02.148Z,2.27
2023-05-12T08:12:31.233Z,3.20
2023-05-12T08:14:59.846Z,3.00
2023-05-12T08:17:29.259Z,2.17
2023-05-12T08:19:57.968Z,2.47
2023-05-12T08:22:27.611Z,2.10
2023-05-12T08:24:56.097Z,2.30
2023-05-12T08:27:24.463Z,2.10
2023-05-12T08:29:52.747Z,2.23
2023-05-12T08:32:21.128Z,2.37
2023-05-12T08:34:50.062Z,2.20
2023-05-12T08:37:18.840Z,2.23
2023-05-12T08:39:48.578Z,2.40
2023-05-12T08:42:31.986Z,2.07
2023-05-12T08:45:02.138Z,2.50
2023-05-12T08:47:33.635Z,2.40
2023-05-12T08:50:04.414Z,2.43
2023-05-12T08:52:37.330Z,2.00
2023-05-12T08:55:08.342Z,3.00
2023-05-12T08:57:39.783Z,2.40
2023-05-12T09:00:10.917Z,2.20
2023-05-12T09:02:51.937Z,2.13
2023-05-12T09:05:21.276Z,2.80
2023-05-12T09:07:52.205Z,2.70
2023-05-12T09:10:33.607Z,2.50
2023-05-12T09:13:06.301Z,2.73
2023-05-12T09:15:40.918Z,2.43
2023-05-12T09:18:09.866Z,2.30
2023-05-12T09:20:38.568Z,2.60
2023-05-12T09:23:15.945Z,2.40
2023-05-12T09:25:47.089Z,2.20
2023-05-12T09:28:16.818Z,2.23
2023-05-12T09:30:45.196Z,2.07
2023-05-12T09:33:15.042Z,1.97
2023-05-12T09:35:45.245Z,2.90
2023-05-12T09:38:14.836Z,1.70
2023-05-12T09:40:44.367Z,2.57
2023-05-12T09:43:17.956Z,1.80
2023-05-12T09:45:50.295Z,1.87
2023-05-12T09:48:19.523Z,2.57
2023-05-12T09:50:50.576Z,2.00
2023-05-12T09:53:20.257Z,2.03
2023-05-12T09:55:49.953Z,2.00
2023-05-12T09:58:22.026Z,2.33
2023-05-12T10:03:28.000Z,2.67
2023-05-12T10:06:00.282Z,2.20
2023-05-12T10:08:36.861Z,2.87
2023-05-12T10:11:07.176Z,2.60
2023-05-12T10:13:37.300Z,2.50
2023-05-12T10:16:06.824Z,2.30
2023-05-12T10:18:36.159Z,2.00
2023-05-12T10:21:05.619Z,1.83
2023-05-12T10:23:37.769Z,2.20
2023-05-12T10:26:07.978Z,2.27
2023-05-12T10:28:37.907Z,2.07
2023-05-12T10:31:08.892Z,3.00
2023-05-12T10:33:37.503Z,2.07
2023-05-12T10:36:06.609Z,2.30
2023-05-12T10:38:38.680Z,2.40
2023-05-12T10:41:08.615Z,2.27
2023-05-12T10:43:44.529Z,2.23
2023-05-12T10:46:18.779Z,2.10
2023-05-12T10:48:56.486Z,2.27
2023-05-12T10:51:28.848Z,2.27
2023-05-12T10:54:02.246Z,2.40
2023-05-12T10:56:32.654Z,2.37
2023-05-12T10:59:14.768Z,2.20
2023-05-12T11:01:44.627Z,1.73
2023-05-12T11:04:16.286Z,1.93
2023-05-12T11:06:47.116Z,2.20
2023-05-12T11:09:17.667Z,2.37
2023-05-12T11:11:47.643Z,2.00
2023-05-12T11:14:19.790Z,1.80
2023-05-12T11:16:48.273Z,1.70
2023-05-12T11:19:20.398Z,2.10
2023-05-12T11:21:50.013Z,1.90
2023-05-12T11:24:18.957Z,1.90
2023-05-12T11:26:51.795Z,2.70
2023-05-12T11:29:22.775Z,2.33
2023-05-12T11:31:52.206Z,2.13
2023-05-12T11:34:23.682Z,2.77
2023-05-12T11:36:53.716Z,2.10
2023-05-12T11:39:24.029Z,2.30
2023-05-12T11:41:59.297Z,2.60
2023-05-12T11:44:35.870Z,2.10
2023-05-12T11:47:12.106Z,2.00
2023-05-12T11:49:48.408Z,2.37
2023-05-12T11:52:22.932Z,2.43
2023-05-12T11:54:52.254Z,2.17
2023-05-12T11:57:28.320Z,2.63
2023-05-12T12:00:03.012Z,2.37
2023-05-12T12:02:31.736Z,3.00
2023-05-12T12:04:59.938Z,2.03
2023-05-12T12:07:32.672Z,2.80
2023-05-12T12:10:11.844Z,2.00
2023-05-12T12:12:40.674Z,2.13
2023-05-12T12:15:11.074Z,2.40
2023-05-12T12:17:39.843Z,2.20
2023-05-12T12:20:10.556Z,2.57
2023-05-12T12:22:38.683Z,2.43
2023-05-12T12:25:08.157Z,2.60
2023-05-12T12:27:36.750Z,2.67
2023-05-12T12:30:05.271Z,1.80
2023-05-12T12:32:34.820Z,2.37
2023-05-12T12:35:04.812Z,1.93
2023-05-12T12:37:33.303Z,2.23
2023-05-12T12:40:08.480Z,2.47
2023-05-12T12:42:37.722Z,2.20
2023-05-12T12:45:06.838Z,1.80
2023-05-12T12:47:37.344Z,2.03
2023-05-12T12:50:05.915Z,2.17
2023-05-12T12:52:34.657Z,2.00
2023-05-12T12:55:03.375Z,2.60
2023-05-12T12:57:32.643Z,2.20
2023-05-12T13:00:01.447Z,2.33
2023-05-12T13:02:30.131Z,2.07
2023-05-12T13:05:03.779Z,2.37
2023-05-12T13:07:35.500Z,2.17
2023-05-12T13:10:03.922Z,2.83
2023-05-12T13:12:33.083Z,2.63
2023-05-12T13:15:02.214Z,2.20
2023-05-12T13:17:30.486Z,2.10
2023-05-12T13:20:00.555Z,2.30
2023-05-12T13:22:29.150Z,2.80
2023-05-12T13:24:57.686Z,2.20
2023-05-12T13:27:26.517Z,2.53
2023-05-12T13:29:54.768Z,2.43
2023-05-12T13:32:23.055Z,2.83
2023-05-12T13:34:51.637Z,2.83
2023-05-12T13:37:21.499Z,2.93
2023-05-12T13:39:49.941Z,2.20
2023-05-12T13:42:18.738Z,2.60
2023-05-12T13:44:47.155Z,2.30
2023-05-12T13:47:15.723Z,2.63
2023-05-12T13:49:44.147Z,2.43
2023-05-12T13:52:12.288Z,2.27
2023-05-12T13:54:42.411Z,2.57
2023-05-12T13:57:11.296Z,3.00
2023-05-12T13:59:39.570Z,2.40
2023-05-12T14:02:09.731Z,2.80
2023-05-12T14:04:38.723Z,2.50
2023-05-12T14:07:08.574Z,2.50
2023-05-12T14:09:37.732Z,2.43
2023-05-12T14:12:09.659Z,3.00
2023-05-12T14:14:37.811Z,3.30
2023-05-12T14:17:07.244Z,2.77
2023-05-12T14:19:36.890Z,2.70
2023-05-12T14:22:09.948Z,2.73
2023-05-12T14:24:47.367Z,2.50
2023-05-12T14:27:17.086Z,2.70
2023-05-12T14:29:45.152Z,2.63
2023-05-12T14:32:14.130Z,2.80
2023-05-12T14:34:42.195Z,2.80
2023-05-12T14:37:10.309Z,3.50
2023-05-12T14:39:39.040Z,2.60
2023-05-12T14:42:07.677Z,3.07
2023-05-12T14:44:39.658Z,2.83
2023-05-12T14:47:08.976Z,3.23
2023-05-12T14:49:38.535Z,2.50
2023-05-12T14:52:07.876Z,3.03
2023-05-12T14:54:36.112Z,3.63
2023-05-12T14:57:05.364Z,2.80
2023-05-12T14:59:34.301Z,2.73
2023-05-12T15:02:03.832Z,3.10
2023-05-12T15:04:32.294Z,2.67
2023-05-12T15:07:00.878Z,2.37
2023-05-12T15:09:29.560Z,2.80
2023-05-12T15:11:57.939Z,2.80
2023-05-12T15:14:26.866Z,2.97
2023-05-12T15:16:55.276Z,2.63
2023-05-12T15:19:24.916Z,2.77
2023-05-12T15:21:53.396Z,2.70
2023-05-12T15:24:21.569Z,2.00
2023-05-12T15:26:49.990Z,3.20
2023-05-12T15:29:18.785Z,3.23
2023-05-12T15:31:49.145Z,3.13
2023-05-12T15:34:17.876Z,2.77
2023-05-12T15:36:49.325Z,2.93
2023-05-12T15:39:17.507Z,3.20
2023-05-12T15:41:45.799Z,3.33
2023-05-12T15:44:14.472Z,3.50
2023-05-12T15:46:42.930Z,2.60
2023-05-12T15:49:11.210Z,4.10
2023-05-12T15:51:40.204Z,3.23
2023-05-12T15:54:10.370Z,2.30
2023-05-12T15:56:38.922Z,2.60
2023-05-12T15:59:07.917Z,5.03
2023-05-12T16:01:36.246Z,3.67
2023-05-12T16:04:04.702Z,2.90
2023-05-12T16:06:33.262Z,3.30
2023-05-12T16:09:01.412Z,3.20
2023-05-12T16:11:30.927Z,3.40
2023-05-12T16:14:00.965Z,3.10
2023-05-12T16:16:29.131Z,4.13
2023-05-12T16:18:57.922Z,3.67
2023-05-12T16:21:26.155Z,2.90
2023-05-12T16:23:54.260Z,3.27
2023-05-12T16:26:23.880Z,2.83
2023-05-12T16:28:54.076Z,3.40
2023-05-12T16:31:22.620Z,2.57
2023-05-12T16:33:51.203Z,2.30
2023-05-12T16:36:19.877Z,3.93
2023-05-12T16:38:48.377Z,3.60
2023-05-12T16:41:16.979Z,2.70
2023-05-12T16:43:45.107Z,2.97
2023-05-12T16:46:15.020Z,3.33
2023-05-12T16:48:43.904Z,3.67
2023-05-12T16:51:12.618Z,2.40
2023-05-12T16:53:41.099Z,3.57
2023-05-12T16:56:09.805Z,4.20
2023-05-12T16:58:38.197Z,2.80
2023-05-12T17:01:06.629Z,3.90
2023-05-12T17:03:36.969Z,3.00
2023-05-12T17:06:05.517Z,2.53
2023-05-12T17:08:36.026Z,3.00
2023-05-12T17:11:06.332Z,2.60
2023-05-12T17:13:37.185Z,2.47
2023-05-12T17:16:06.274Z,2.80
2023-05-12T17:19:13.666Z,2.53
2023-05-12T17:21:24.055Z,2.00
2023-05-12T17:23:53.460Z,2.93
2023-05-12T17:26:23.076Z,2.70
2023-05-12T17:28:51.677Z,2.87
2023-05-12T17:31:20.396Z,2.40
2023-05-12T17:33:49.784Z,3.30
2023-05-12T17:36:18.678Z,3.43
2023-05-12T17:38:47.766Z,3.50
2023-05-12T17:41:16.245Z,3.00
2023-05-12T17:43:44.405Z,3.30
2023-05-12T17:46:13.011Z,2.50
2023-05-12T17:48:41.174Z,2.87
2023-05-12T17:51:10.431Z,2.60
2023-05-12T17:53:39.153Z,2.80
2023-05-12T17:56:07.579Z,2.77
2023-05-12T17:58:36.229Z,4.33
2023-05-12T18:01:04.409Z,4.23
2023-05-12T18:03:32.518Z,5.07
2023-05-12T18:06:00.486Z,3.30
2023-05-12T18:08:30.320Z,3.37
2023-05-12T18:10:58.482Z,3.20
2023-05-12T18:13:26.706Z,3.53
2023-05-12T18:15:55.196Z,3.60
2023-05-12T18:18:24.617Z,2.97
2023-05-12T18:20:52.928Z,4.03
2023-05-12T18:23:21.351Z,3.70
2023-05-12T18:25:51.168Z,2.80
2023-05-12T18:28:19.260Z,2.87
2023-05-12T18:30:48.147Z,3.67
2023-05-12T18:33:16.380Z,3.03
2023-05-12T18:35:44.656Z,3.03
2023-05-12T18:38:13.174Z,3.30
2023-05-12T18:40:41.423Z,2.67
2023-05-12T18:43:11.271Z,3.30
2023-05-12T18:45:40.045Z,3.10
2023-05-12T18:48:08.380Z,3.10
2023-05-12T18:50:36.654Z,3.40
2023-05-12T18:53:05.248Z,3.30
2023-05-12T18:55:33.374Z,3.07
2023-05-12T18:58:02.047Z,3.57
2023-05-12T19:00:35.178Z,3.03
2023-05-12T19:03:03.653Z,3.63
2023-05-12T19:05:32.333Z,3.67
2023-05-12T19:08:00.886Z,3.00
2023-05-12T19:10:28.884Z,3.43
2023-05-12T19:12:57.020Z,3.40
2023-05-12T19:15:26.049Z,3.33
2023-05-12T19:17:55.856Z,2.80
2023-05-12T19:20:24.621Z,3.90
2023-05-12T19:22:53.410Z,3.00
2023-05-12T19:25:22.419Z,2.50
2023-05-12T19:27:51.087Z,3.27
2023-05-12T19:30:19.975Z,2.60
2023-05-12T19:32:50.206Z,2.50
2023-05-12T19:35:31.051Z,2.30
2023-05-12T19:37:59.216Z,2.80
2023-05-12T19:40:27.415Z,2.40
2023-05-12T19:42:56.666Z,2.70
2023-05-12T19:45:25.522Z,3.07
2023-05-12T19:47:54.510Z,2.57
2023-05-12T19:50:24.884Z,2.30
2023-05-12T19:52:53.579Z,3.30
2023-05-12T19:55:24.091Z,2.40
2023-05-12T19:57:53.196Z,2.80
2023-05-12T20:00:22.330Z,2.37
2023-05-12T20:02:51.277Z,2.47
2023-05-12T20:05:19.944Z,2.10
2023-05-12T20:07:49.789Z,2.97
2023-05-12T20:10:18.369Z,3.20
2023-05-12T20:12:46.297Z,2.10
2023-05-12T20:15:14.428Z,1.97
2023-05-12T20:17:42.692Z,2.50
2023-05-12T20:20:12.587Z,1.73
2023-05-12T20:22:41.088Z,2.23
2023-05-12T20:25:14.371Z,2.47
2023-05-12T20:27:42.632Z,2.47
2023-05-12T20:30:12.141Z,1.93
2023-05-12T20:32:40.549Z,2.10
2023-05-12T20:35:09.332Z,2.50
2023-05-12T20:37:38.771Z,2.13
2023-05-12T20:40:08.356Z,2.10
2023-05-12T20:42:37.864Z,2.17
2023-05-12T20:47:53.276Z,2.20
2023-05-12T20:50:23.744Z,2.40
2023-05-12T20:52:52.114Z,2.03
2023-05-12T20:55:21.248Z,1.83
2023-05-12T20:57:51.334Z,1.80
2023-05-12T21:00:20.390Z,2.30
2023-05-12T21:02:52.612Z,2.10
2023-05-12T21:05:21.143Z,2.77
2023-05-12T21:07:49.368Z,2.10
2023-05-12T21:10:18.060Z,2.50
2023-05-12T21:12:46.181Z,2.77
2023-05-12T21:15:15.800Z,3.20
2023-05-12T21:17:44.262Z,2.10
2023-05-12T21:20:13.470Z,2.63
2023-05-12T21:22:41.747Z,2.67
2023-05-12T21:25:10.808Z,3.13
2023-05-12T21:27:41.526Z,3.03
2023-05-12T21:30:11.688Z,2.10
2023-05-12T21:32:41.350Z,2.60
2023-05-12T21:35:10.158Z,2.30
2023-05-12T21:37:38.922Z,2.57
2023-05-12T21:40:08.463Z,2.80
2023-05-12T21:42:36.622Z,2.70
2023-05-12T21:45:05.943Z,2.70
2023-05-12T21:47:34.211Z,2.40
2023-05-12T21:50:04.526Z,2.60
2023-05-12T21:52:33.623Z,2.70
2023-05-12T21:55:04.973Z,3.40
2023-05-12T21:57:33.768Z,2.47
2023-05-12T22:00:04.177Z,2.60
2023-05-12T22:02:32.700Z,2.67
2023-05-12T22:05:01.592Z,2.67
2023-05-12T22:07:31.655Z,1.90
2023-05-12T22:09:59.780Z,2.33
2023-05-12T22:12:28.521Z,2.10
2023-05-12T22:14:56.586Z,2.23
2023-05-12T22:17:24.934Z,2.63
2023-05-12T22:19:53.356Z,2.60
2023-05-12T22:22:21.973Z,2.93
2023-05-12T22:24:52.181Z,2.40
2023-05-12T22:27:22.772Z,2.87
2023-05-12T22:29:50.994Z,3.40
2023-05-12T22:32:18.817Z,3.33
2023-05-12T22:34:47.266Z,2.93
2023-05-12T22:37:15.304Z,3.20
2023-05-12T22:39:43.372Z,3.50
2023-05-12T22:42:12.966Z,3.03
2023-05-12T22:44:40.867Z,2.97
2023-05-12T22:47:08.936Z,2.67
2023-05-12T22:49:37.880Z,2.93
2023-05-12T22:52:06.597Z,3.27
2023-05-12T22:54:34.879Z,2.77
2023-05-12T22:57:03.580Z,2.47
2023-05-12T22:59:33.134Z,2.70
2023-05-12T23:02:01.194Z,3.00
2023-05-12T23:04:29.743Z,2.80
2023-05-12T23:06:57.809Z,2.60
2023-05-12T23:09:26.141Z,3.13
2023-05-12T23:11:54.547Z,2.40
2023-05-12T23:14:22.752Z,3.77
2023-05-12T23:16:52.121Z,2.60
2023-05-12T23:19:20.562Z,2.90
2023-05-12T23:21:48.656Z,2.33
2023-05-12T23:24:17.010Z,2.87
2023-05-12T23:26:45.367Z,2.67
2023-05-12T23:29:13.426Z,2.37
2023-05-12T23:31:42.427Z,2.73
2023-05-12T23:34:12.214Z,2.27
2023-05-12T23:36:40.170Z,2.47
2023-05-12T23:39:10.169Z,3.20
2023-05-12T23:41:38.344Z,2.70
2023-05-12T23:44:06.735Z,2.83
2023-05-12T23:46:35.298Z,2.33
2023-05-12T23:49:03.689Z,3.20
2023-05-12T23:51:34.523Z,3.00
2023-05-12T23:54:03.205Z,3.27
2023-05-12T23:56:31.427Z,3.00
2023-05-12T23:58:59.759Z,2.67
